sensor_id;sensor_type;location;lat;lon;timestamp;pressure;altitude;pressure_sealevel;temperature;humidity
41366;BME280;27108;44.776;20.476;2022-07-12T00:02:36;100299.75;;;20.04;55.89
41366;BME280;27108;44.776;20.476;2022-07-12T00:05:07;100294.38;;;20.01;55.75
41366;BME280;27108;44.776;20.476;2022-07-12T00:07:38;100296.69;;;19.91;53.83
41366;BME280;27108;44.776;20.476;2022-07-12T00:10:13;100299.25;;;19.72;53.68
41366;BME280;27108;44.776;20.476;2022-07-12T00:12:46;100294.16;;;19.76;53.54
41366;BME280;27108;44.776;20.476;2022-07-12T00:15:18;100299.22;;;19.78;56.38
41366;BME280;27108;44.776;20.476;2022-07-12T00:17:52;100297.47;;;19.69;52.43
41366;BME280;27108;44.776;20.476;2022-07-12T00:20:24;100245.38;;;19.29;52.85
41366;BME280;27108;44.776;20.476;2022-07-12T00:22:53;100290.53;;;19.53;53.08
41366;BME280;27108;44.776;20.476;2022-07-12T00:25:27;100290.00;;;19.55;53.04
41366;BME280;27108;44.776;20.476;2022-07-12T00:28:04;100192.31;;;18.91;54.71
41366;BME280;27108;44.776;20.476;2022-07-12T00:30:35;100301.72;;;19.48;53.54
41366;BME280;27108;44.776;20.476;2022-07-12T00:33:09;100300.16;;;19.35;54.15
41366;BME280;27108;44.776;20.476;2022-07-12T00:35:40;100305.00;;;19.29;54.80
41366;BME280;27108;44.776;20.476;2022-07-12T00:38:15;100304.47;;;19.31;54.85
41366;BME280;27108;44.776;20.476;2022-07-12T00:40:49;100303.22;;;19.37;54.79
41366;BME280;27108;44.776;20.476;2022-07-12T00:43:22;100317.22;;;19.37;55.90
41366;BME280;27108;44.776;20.476;2022-07-12T00:45:50;100306.53;;;19.41;56.60
41366;BME280;27108;44.776;20.476;2022-07-12T00:48:19;100305.53;;;19.50;58.03
41366;BME280;27108;44.776;20.476;2022-07-12T00:50:49;100262.66;;;19.16;56.30
41366;BME280;27108;44.776;20.476;2022-07-12T00:53:18;100304.78;;;19.50;54.47
41366;BME280;27108;44.776;20.476;2022-07-12T00:55:57;100305.03;;;19.46;53.85
41366;BME280;27108;44.776;20.476;2022-07-12T00:58:28;100313.41;;;19.40;56.00
41366;BME280;27108;44.776;20.476;2022-07-12T01:00:58;100310.34;;;19.38;56.70
41366;BME280;27108;44.776;20.476;2022-07-12T01:03:28;100305.25;;;19.31;59.58
41366;BME280;27108;44.776;20.476;2022-07-12T01:06:02;100091.13;;;17.79;59.54
41366;BME280;27108;44.776;20.476;2022-07-12T01:08:33;100306.28;;;19.34;55.30
41366;BME280;27108;44.776;20.476;2022-07-12T01:11:04;100311.59;;;19.32;55.86
41366;BME280;27108;44.776;20.476;2022-07-12T01:13:36;100305.75;;;19.30;58.02
41366;BME280;27108;44.776;20.476;2022-07-12T01:16:08;100228.94;;;18.82;55.68
41366;BME280;27108;44.776;20.476;2022-07-12T01:18:43;100306.75;;;19.32;57.93
41366;BME280;27108;44.776;20.476;2022-07-12T01:21:19;100176.56;;;18.34;55.71
41366;BME280;27108;44.776;20.476;2022-07-12T01:23:51;100308.31;;;19.33;56.52
41366;BME280;27108;44.776;20.476;2022-07-12T01:26:21;100308.81;;;19.32;59.62
41366;BME280;27108;44.776;20.476;2022-07-12T01:29:04;100263.59;;;18.90;58.73
41366;BME280;27108;44.776;20.476;2022-07-12T01:31:39;100262.59;;;18.93;60.54
41366;BME280;27108;44.776;20.476;2022-07-12T01:34:11;100304.44;;;19.25;57.33
41366;BME280;27108;44.776;20.476;2022-07-12T01:36:41;100306.75;;;19.27;56.78
41366;BME280;27108;44.776;20.476;2022-07-12T01:39:14;100227.59;;;18.66;57.45
41366;BME280;27108;44.776;20.476;2022-07-12T01:41:45;100249.78;;;18.76;56.26
41366;BME280;27108;44.776;20.476;2022-07-12T01:44:14;100297.78;;;19.11;56.26
41366;BME280;27108;44.776;20.476;2022-07-12T01:46:44;100300.31;;;19.04;58.72
41366;BME280;27108;44.776;20.476;2022-07-12T01:49:19;100305.41;;;19.05;59.05
41366;BME280;27108;44.776;20.476;2022-07-12T01:51:48;100297.00;;;19.05;60.69
41366;BME280;27108;44.776;20.476;2022-07-12T01:54:20;100300.84;;;19.08;59.88
41366;BME280;27108;44.776;20.476;2022-07-12T01:56:49;100292.41;;;19.02;60.02
41366;BME280;27108;44.776;20.476;2022-07-12T01:59:20;100296.97;;;19.00;60.46
41366;BME280;27108;44.776;20.476;2022-07-12T02:01:51;100288.81;;;18.96;58.52
41366;BME280;27108;44.776;20.476;2022-07-12T02:04:25;100295.66;;;18.89;61.99
41366;BME280;27108;44.776;20.476;2022-07-12T02:06:56;100295.13;;;18.85;57.18
41366;BME280;27108;44.776;20.476;2022-07-12T02:09:32;100297.19;;;18.85;58.38
41366;BME280;27108;44.776;20.476;2022-07-12T02:12:02;100264.72;;;18.67;58.99
41366;BME280;27108;44.776;20.476;2022-07-12T02:14:34;100290.31;;;18.86;58.17
41366;BME280;27108;44.776;20.476;2022-07-12T02:17:05;100293.63;;;18.84;58.41
41366;BME280;27108;44.776;20.476;2022-07-12T02:19:42;100287.75;;;18.82;59.90
41366;BME280;27108;44.776;20.476;2022-07-12T02:22:13;100288.75;;;18.79;57.51
41366;BME280;27108;44.776;20.476;2022-07-12T02:24:58;100293.81;;;18.75;57.24
41366;BME280;27108;44.776;20.476;2022-07-12T02:27:27;100290.47;;;18.71;58.46
41366;BME280;27108;44.776;20.476;2022-07-12T02:29:57;100294.75;;;18.66;57.91
41366;BME280;27108;44.776;20.476;2022-07-12T02:32:29;100303.91;;;18.67;60.85
41366;BME280;27108;44.776;20.476;2022-07-12T02:35:04;100300.34;;;18.66;58.97
41366;BME280;27108;44.776;20.476;2022-07-12T02:37:37;100304.16;;;18.63;57.69
41366;BME280;27108;44.776;20.476;2022-07-12T02:40:13;100240.69;;;18.00;57.02
41366;BME280;27108;44.776;20.476;2022-07-12T02:43:09;100316.19;;;18.32;60.12
41366;BME280;27108;44.776;20.476;2022-07-12T02:45:40;100316.44;;;18.34;61.71
41366;BME280;27108;44.776;20.476;2022-07-12T02:48:14;100309.59;;;18.35;58.64
41366;BME280;27108;44.776;20.476;2022-07-12T02:50:43;100176.66;;;17.39;58.60
41366;BME280;27108;44.776;20.476;2022-07-12T02:53:16;100321.84;;;18.43;60.44
41366;BME280;27108;44.776;20.476;2022-07-12T02:55:52;100330.69;;;18.36;63.01
41366;BME280;27108;44.776;20.476;2022-07-12T02:58:21;100326.91;;;18.39;62.72
41366;BME280;27108;44.776;20.476;2022-07-12T03:00:53;100323.94;;;18.48;59.56
41366;BME280;27108;44.776;20.476;2022-07-12T03:03:23;100317.84;;;18.56;59.53
41366;BME280;27108;44.776;20.476;2022-07-12T03:05:53;100328.28;;;18.55;59.96
41366;BME280;27108;44.776;20.476;2022-07-12T03:08:28;100266.72;;;18.18;58.99
41366;BME280;27108;44.776;20.476;2022-07-12T03:11:27;100328.28;;;18.55;60.03
41366;BME280;27108;44.776;20.476;2022-07-12T03:13:59;100323.16;;;18.48;59.25
41366;BME280;27108;44.776;20.476;2022-07-12T03:16:34;100334.06;;;18.46;62.14
41366;BME280;27108;44.776;20.476;2022-07-12T03:19:03;100330.78;;;18.47;60.49
41366;BME280;27108;44.776;20.476;2022-07-12T03:21:40;100337.38;;;18.44;60.43
41366;BME280;27108;44.776;20.476;2022-07-12T03:24:15;100336.56;;;18.38;61.22
41366;BME280;27108;44.776;20.476;2022-07-12T03:26:47;100329.00;;;18.44;61.81
41366;BME280;27108;44.776;20.476;2022-07-12T03:29:20;99974.97;;;16.08;59.53
41366;BME280;27108;44.776;20.476;2022-07-12T03:31:53;100256.81;;;17.85;59.65
41366;BME280;27108;44.776;20.476;2022-07-12T03:34:24;100139.34;;;17.11;60.41
41366;BME280;27108;44.776;20.476;2022-07-12T03:37:06;100340.63;;;18.37;62.28
41366;BME280;27108;44.776;20.476;2022-07-12T03:40:07;100344.50;;;18.45;62.80
41366;BME280;27108;44.776;20.476;2022-07-12T03:42:38;100343.81;;;18.56;58.28
41366;BME280;27108;44.776;20.476;2022-07-12T03:45:09;100346.41;;;18.65;60.54
41366;BME280;27108;44.776;20.476;2022-07-12T03:47:40;100344.41;;;18.71;59.82
41366;BME280;27108;44.776;20.476;2022-07-12T03:50:11;100339.78;;;18.63;58.98
41366;BME280;27108;44.776;20.476;2022-07-12T03:52:46;100343.63;;;18.65;61.19
41366;BME280;27108;44.776;20.476;2022-07-12T03:55:39;100343.66;;;18.71;58.12
41366;BME280;27108;44.776;20.476;2022-07-12T03:58:15;100267.47;;;18.13;57.69
41366;BME280;27108;44.776;20.476;2022-07-12T04:00:48;100235.56;;;17.93;60.72
41366;BME280;27108;44.776;20.476;2022-07-12T04:03:19;100230.69;;;17.88;61.21
41366;BME280;27108;44.776;20.476;2022-07-12T04:05:49;100339.31;;;18.70;59.54
41366;BME280;27108;44.776;20.476;2022-07-12T04:08:24;100292.56;;;18.39;59.33
41366;BME280;27108;44.776;20.476;2022-07-12T04:10:52;100350.81;;;18.72;60.74
41366;BME280;27108;44.776;20.476;2022-07-12T04:13:30;100348.53;;;18.76;57.94
41366;BME280;27108;44.776;20.476;2022-07-12T04:16:06;100354.84;;;18.71;58.58
41366;BME280;27108;44.776;20.476;2022-07-12T04:18:36;100330.31;;;18.55;58.65
41366;BME280;27108;44.776;20.476;2022-07-12T04:21:11;100354.66;;;18.75;57.83
41366;BME280;27108;44.776;20.476;2022-07-12T04:23:55;100361.78;;;18.76;58.22
41366;BME280;27108;44.776;20.476;2022-07-12T04:26:23;100081.22;;;16.83;59.83
41366;BME280;27108;44.776;20.476;2022-07-12T04:29:00;100361.00;;;18.75;60.41
41366;BME280;27108;44.776;20.476;2022-07-12T04:31:31;100362.53;;;18.76;57.88
41366;BME280;27108;44.776;20.476;2022-07-12T04:33:59;100178.16;;;17.66;56.92
41366;BME280;27108;44.776;20.476;2022-07-12T04:36:35;100328.63;;;18.68;57.72
41366;BME280;27108;44.776;20.476;2022-07-12T04:39:06;100359.56;;;18.91;56.70
41366;BME280;27108;44.776;20.476;2022-07-12T04:41:37;100283.44;;;18.44;58.41
41366;BME280;27108;44.776;20.476;2022-07-12T04:44:12;100357.81;;;18.99;59.73
41366;BME280;27108;44.776;20.476;2022-07-12T04:46:57;100360.38;;;19.03;59.29
41366;BME280;27108;44.776;20.476;2022-07-12T04:49:27;100370.59;;;19.06;57.81
41366;BME280;27108;44.776;20.476;2022-07-12T04:51:56;100368.59;;;19.12;58.09
41366;BME280;27108;44.776;20.476;2022-07-12T04:54:35;100366.81;;;19.14;60.95
41366;BME280;27108;44.776;20.476;2022-07-12T04:57:06;100374.13;;;19.01;56.92
41366;BME280;27108;44.776;20.476;2022-07-12T04:59:42;100375.94;;;19.04;60.07
41366;BME280;27108;44.776;20.476;2022-07-12T05:02:14;100371.91;;;19.10;60.44
41366;BME280;27108;44.776;20.476;2022-07-12T05:04:43;100259.94;;;18.30;56.57
41366;BME280;27108;44.776;20.476;2022-07-12T05:07:17;100366.78;;;19.09;57.84
41366;BME280;27108;44.776;20.476;2022-07-12T05:09:53;100370.66;;;19.17;57.29
41366;BME280;27108;44.776;20.476;2022-07-12T05:12:21;100374.25;;;19.23;56.76
41366;BME280;27108;44.776;20.476;2022-07-12T05:15:11;100375.25;;;19.26;57.10
41366;BME280;27108;44.776;20.476;2022-07-12T05:17:49;100236.31;;;18.31;56.11
41366;BME280;27108;44.776;20.476;2022-07-12T05:20:19;100384.44;;;19.26;58.21
41366;BME280;27108;44.776;20.476;2022-07-12T05:22:47;100379.63;;;19.38;56.15
41366;BME280;27108;44.776;20.476;2022-07-12T05:25:41;100249.94;;;18.55;55.84
41366;BME280;27108;44.776;20.476;2022-07-12T05:28:16;100341.09;;;19.16;55.57
41366;BME280;27108;44.776;20.476;2022-07-12T05:31:00;100386.84;;;19.56;58.29
41366;BME280;27108;44.776;20.476;2022-07-12T05:33:30;100391.69;;;19.61;56.50
41366;BME280;27108;44.776;20.476;2022-07-12T05:36:01;100392.97;;;19.60;54.39
41366;BME280;27108;44.776;20.476;2022-07-12T05:38:37;100386.63;;;19.65;54.82
41366;BME280;27108;44.776;20.476;2022-07-12T05:41:26;100400.44;;;19.69;56.03
41366;BME280;27108;44.776;20.476;2022-07-12T05:44:01;100396.88;;;19.79;52.71
41366;BME280;27108;44.776;20.476;2022-07-12T05:46:33;100374.94;;;19.72;54.44
41366;BME280;27108;44.776;20.476;2022-07-12T05:49:08;100395.38;;;19.90;53.63
41366;BME280;27108;44.776;20.476;2022-07-12T05:51:40;100360.16;;;19.77;54.68
41366;BME280;27108;44.776;20.476;2022-07-12T05:54:35;100389.75;;;20.01;52.19
41366;BME280;27108;44.776;20.476;2022-07-12T05:57:14;100388.75;;;19.93;54.18
41366;BME280;27108;44.776;20.476;2022-07-12T05:59:44;100346.91;;;19.83;53.66
41366;BME280;27108;44.776;20.476;2022-07-12T06:02:21;100396.16;;;20.29;52.54
41366;BME280;27108;44.776;20.476;2022-07-12T06:04:56;100394.13;;;20.47;50.95
41366;BME280;27108;44.776;20.476;2022-07-12T06:07:25;100391.63;;;20.60;51.20
41366;BME280;27108;44.776;20.476;2022-07-12T06:09:59;100180.16;;;19.28;51.32
41366;BME280;27108;44.776;20.476;2022-07-12T06:12:32;100399.22;;;20.82;53.16
41366;BME280;27108;44.776;20.476;2022-07-12T06:15:07;100379.78;;;20.95;48.93
41366;BME280;27108;44.776;20.476;2022-07-12T06:17:41;100380.03;;;21.03;50.04
41366;BME280;27108;44.776;20.476;2022-07-12T06:20:15;100385.84;;;21.16;49.74
41366;BME280;27108;44.776;20.476;2022-07-12T06:22:47;100378.47;;;21.13;49.94
41366;BME280;27108;44.776;20.476;2022-07-12T06:25:16;100386.03;;;21.35;49.05
41366;BME280;27108;44.776;20.476;2022-07-12T06:28:12;100385.38;;;21.70;59.70
41366;BME280;27108;44.776;20.476;2022-07-12T06:30:41;100386.94;;;22.07;73.91
41366;BME280;27108;44.776;20.476;2022-07-12T06:33:19;100386.91;;;22.43;56.45
41366;BME280;27108;44.776;20.476;2022-07-12T06:35:48;100391.66;;;22.84;55.09
41366;BME280;27108;44.776;20.476;2022-07-12T06:38:25;100097.38;;;21.19;47.78
41366;BME280;27108;44.776;20.476;2022-07-12T06:40:54;100382.56;;;23.40;46.76
41366;BME280;27108;44.776;20.476;2022-07-12T06:43:31;100388.25;;;23.78;50.10
41366;BME280;27108;44.776;20.476;2022-07-12T06:46:03;100357.03;;;23.89;48.37
41366;BME280;27108;44.776;20.476;2022-07-12T06:48:39;100385.47;;;24.42;45.49
41366;BME280;27108;44.776;20.476;2022-07-12T06:51:09;100330.78;;;24.26;42.58
41366;BME280;27108;44.776;20.476;2022-07-12T06:53:38;100388.56;;;24.71;42.54
41366;BME280;27108;44.776;20.476;2022-07-12T06:56:09;100377.50;;;24.86;42.77
41366;BME280;27108;44.776;20.476;2022-07-12T06:58:42;100369.66;;;24.92;41.12
41366;BME280;27108;44.776;20.476;2022-07-12T07:01:19;100386.00;;;25.13;41.65
41366;BME280;27108;44.776;20.476;2022-07-12T07:03:51;100365.09;;;25.16;41.98
41366;BME280;27108;44.776;20.476;2022-07-12T07:06:20;100371.44;;;25.56;41.48
41366;BME280;27108;44.776;20.476;2022-07-12T07:08:56;100238.47;;;24.61;40.28
41366;BME280;27108;44.776;20.476;2022-07-12T07:11:28;100342.00;;;25.73;39.86
41366;BME280;27108;44.776;20.476;2022-07-12T07:14:03;100338.47;;;26.14;37.62
41366;BME280;27108;44.776;20.476;2022-07-12T07:16:53;100241.63;;;25.53;39.03
41366;BME280;27108;44.776;20.476;2022-07-12T07:19:26;100374.38;;;26.61;38.09
41366;BME280;27108;44.776;20.476;2022-07-12T07:21:56;100373.88;;;26.70;37.82
41366;BME280;27108;44.776;20.476;2022-07-12T07:24:27;100370.22;;;26.91;36.76
41366;BME280;27108;44.776;20.476;2022-07-12T07:26:56;100374.31;;;27.11;35.84
41366;BME280;27108;44.776;20.476;2022-07-12T07:29:30;100308.84;;;26.44;36.62
41366;BME280;27108;44.776;20.476;2022-07-12T07:35:16;100373.91;;;27.35;36.29
41366;BME280;27108;44.776;20.476;2022-07-12T07:37:50;100378.50;;;27.53;35.09
41366;BME280;27108;44.776;20.476;2022-07-12T07:40:21;100276.91;;;27.08;36.05
41366;BME280;27108;44.776;20.476;2022-07-12T07:42:55;100376.69;;;27.79;35.70
41366;BME280;27108;44.776;20.476;2022-07-12T07:45:26;100263.75;;;27.26;34.01
41366;BME280;27108;44.776;20.476;2022-07-12T07:47:55;100373.34;;;28.11;34.28
41366;BME280;27108;44.776;20.476;2022-07-12T07:50:50;100242.09;;;27.74;33.79
41366;BME280;27108;44.776;20.476;2022-07-12T07:53:25;100033.28;;;26.58;31.77
41366;BME280;27108;44.776;20.476;2022-07-12T07:55:59;100373.88;;;29.17;31.58
41366;BME280;27108;44.776;20.476;2022-07-12T07:58:53;100377.78;;;29.29;31.87
41366;BME280;27108;44.776;20.476;2022-07-12T08:01:23;100376.72;;;29.57;31.76
41366;BME280;27108;44.776;20.476;2022-07-12T08:04:15;100380.91;;;29.64;29.81
41366;BME280;27108;44.776;20.476;2022-07-12T08:06:50;100383.28;;;30.08;31.11
41366;BME280;27108;44.776;20.476;2022-07-12T08:09:19;100385.34;;;30.40;30.14
41366;BME280;27108;44.776;20.476;2022-07-12T08:11:51;100385.53;;;30.42;30.57
41366;BME280;27108;44.776;20.476;2022-07-12T08:14:23;100384.38;;;30.45;29.20
41366;BME280;27108;44.776;20.476;2022-07-12T08:16:57;100397.56;;;30.33;30.06
41366;BME280;27108;44.776;20.476;2022-07-12T08:19:33;100384.06;;;30.59;29.32
41366;BME280;27108;44.776;20.476;2022-07-12T08:22:11;100378.91;;;30.57;29.13
41366;BME280;27108;44.776;20.476;2022-07-12T08:24:39;100376.16;;;30.67;28.30
41366;BME280;27108;44.776;20.476;2022-07-12T08:27:14;100376.34;;;30.69;28.52
41366;BME280;27108;44.776;20.476;2022-07-12T08:29:49;100374.69;;;30.83;28.21
41366;BME280;27108;44.776;20.476;2022-07-12T08:32:18;100368.09;;;30.81;27.25
41366;BME280;27108;44.776;20.476;2022-07-12T08:35:13;100356.72;;;30.73;27.73
41366;BME280;27108;44.776;20.476;2022-07-12T08:37:47;100359.59;;;31.08;26.96
41366;BME280;27108;44.776;20.476;2022-07-12T08:40:18;100265.69;;;30.32;26.61
41366;BME280;27108;44.776;20.476;2022-07-12T08:42:48;100361.34;;;30.68;27.46
41366;BME280;27108;44.776;20.476;2022-07-12T08:45:24;100302.97;;;30.02;26.84
41366;BME280;27108;44.776;20.476;2022-07-12T08:47:58;100264.63;;;29.95;26.00
41366;BME280;27108;44.776;20.476;2022-07-12T08:50:27;100253.75;;;30.26;26.70
41366;BME280;27108;44.776;20.476;2022-07-12T08:53:16;100352.19;;;31.22;25.63
41366;BME280;27108;44.776;20.476;2022-07-12T08:55:47;100338.88;;;31.07;26.69
41366;BME280;27108;44.776;20.476;2022-07-12T08:58:22;100245.28;;;30.19;27.11
41366;BME280;27108;44.776;20.476;2022-07-12T09:00:57;100351.75;;;30.73;27.41
41366;BME280;27108;44.776;20.476;2022-07-12T09:03:47;100242.03;;;30.22;27.31
41366;BME280;27108;44.776;20.476;2022-07-12T09:06:22;100181.84;;;29.93;27.46
41366;BME280;27108;44.776;20.476;2022-07-12T09:09:00;100345.94;;;31.78;23.70
41366;BME280;27108;44.776;20.476;2022-07-12T09:11:39;100338.28;;;32.07;22.84
41366;BME280;27108;44.776;20.476;2022-07-12T09:14:21;100340.38;;;32.07;23.05
41366;BME280;27108;44.776;20.476;2022-07-12T09:17:21;100322.38;;;31.33;23.72
41366;BME280;27108;44.776;20.476;2022-07-12T09:19:56;100099.75;;;29.99;23.48
41366;BME280;27108;44.776;20.476;2022-07-12T09:22:50;100350.00;;;31.75;24.42
41366;BME280;27108;44.776;20.476;2022-07-12T09:25:25;100339.06;;;32.17;22.07
41366;BME280;27108;44.776;20.476;2022-07-12T09:28:04;100343.81;;;32.42;21.91
41366;BME280;27108;44.776;20.476;2022-07-12T09:30:35;100277.75;;;31.91;21.73
41366;BME280;27108;44.776;20.476;2022-07-12T09:33:12;100180.41;;;31.16;22.14
41366;BME280;27108;44.776;20.476;2022-07-12T09:36:03;100340.63;;;32.38;21.90
41366;BME280;27108;44.776;20.476;2022-07-12T09:38:39;100349.47;;;32.23;21.91
41366;BME280;27108;44.776;20.476;2022-07-12T09:41:22;100337.09;;;32.10;21.88
41366;BME280;27108;44.776;20.476;2022-07-12T09:43:52;100260.22;;;31.78;21.57
41366;BME280;27108;44.776;20.476;2022-07-12T09:46:23;100334.81;;;32.46;21.46
41366;BME280;27108;44.776;20.476;2022-07-12T09:48:58;100333.59;;;32.49;22.49
41366;BME280;27108;44.776;20.476;2022-07-12T09:51:29;100237.91;;;31.93;21.68
41366;BME280;27108;44.776;20.476;2022-07-12T09:54:04;100335.00;;;32.67;21.20
41366;BME280;27108;44.776;20.476;2022-07-12T09:56:43;100354.63;;;33.09;21.50
41366;BME280;27108;44.776;20.476;2022-07-12T09:59:16;100324.91;;;32.85;21.27
41366;BME280;27108;44.776;20.476;2022-07-12T10:01:53;100264.56;;;32.06;21.34
41366;BME280;27108;44.776;20.476;2022-07-12T10:04:29;100323.38;;;32.55;22.45
41366;BME280;27108;44.776;20.476;2022-07-12T10:07:04;100306.97;;;32.66;21.75
41366;BME280;27108;44.776;20.476;2022-07-12T10:09:40;100178.97;;;31.61;20.64
41366;BME280;27108;44.776;20.476;2022-07-12T10:12:13;100318.75;;;32.23;20.38
41366;BME280;27108;44.776;20.476;2022-07-12T10:14:47;100317.00;;;32.37;20.89
41366;BME280;27108;44.776;20.476;2022-07-12T10:17:22;100317.91;;;32.40;20.32
41366;BME280;27108;44.776;20.476;2022-07-12T10:20:15;100239.03;;;31.17;20.97
41366;BME280;27108;44.776;20.476;2022-07-12T10:22:47;100314.91;;;31.37;21.04
41366;BME280;27108;44.776;20.476;2022-07-12T10:25:30;100188.06;;;30.17;21.52
41366;BME280;27108;44.776;20.476;2022-07-12T10:28:04;100309.16;;;30.58;22.19
41366;BME280;27108;44.776;20.476;2022-07-12T10:30:42;100315.75;;;30.43;22.93
41366;BME280;27108;44.776;20.476;2022-07-12T10:33:17;100311.38;;;30.42;23.03
41366;BME280;27108;44.776;20.476;2022-07-12T10:36:07;100305.78;;;30.52;22.27
41366;BME280;27108;44.776;20.476;2022-07-12T10:39:12;100310.03;;;30.26;22.11
41366;BME280;27108;44.776;20.476;2022-07-12T10:42:14;100304.25;;;29.83;23.38
41366;BME280;27108;44.776;20.476;2022-07-12T10:45:13;100332.22;;;29.37;25.07
41366;BME280;27108;44.776;20.476;2022-07-12T10:47:58;100312.91;;;29.28;24.43
41366;BME280;27108;44.776;20.476;2022-07-12T10:50:58;100306.59;;;28.89;24.94
41366;BME280;27108;44.776;20.476;2022-07-12T10:53:30;100305.91;;;28.65;24.99
41366;BME280;27108;44.776;20.476;2022-07-12T10:56:17;100309.13;;;28.54;25.13
41366;BME280;27108;44.776;20.476;2022-07-12T10:58:58;100314.63;;;28.37;26.44
41366;BME280;27108;44.776;20.476;2022-07-12T11:01:30;100312.38;;;28.12;25.92
41366;BME280;27108;44.776;20.476;2022-07-12T11:04:06;100217.25;;;27.60;26.70
41366;BME280;27108;44.776;20.476;2022-07-12T11:06:40;100307.63;;;28.15;25.80
41366;BME280;27108;44.776;20.476;2022-07-12T11:09:12;100312.94;;;28.18;26.18
41366;BME280;27108;44.776;20.476;2022-07-12T11:11:51;100301.38;;;28.01;24.85
41366;BME280;27108;44.776;20.476;2022-07-12T11:14:25;100298.72;;;27.88;25.45
41366;BME280;27108;44.776;20.476;2022-07-12T11:17:03;100290.09;;;27.42;26.39
41366;BME280;27108;44.776;20.476;2022-07-12T11:20:04;100296.69;;;27.37;26.78
41366;BME280;27108;44.776;20.476;2022-07-12T11:22:37;100299.31;;;26.91;26.32
41366;BME280;27108;44.776;20.476;2022-07-12T11:25:12;100295.31;;;26.78;26.59
41366;BME280;27108;44.776;20.476;2022-07-12T11:27:43;100196.16;;;26.29;27.41
41366;BME280;27108;44.776;20.476;2022-07-12T11:30:13;100294.81;;;26.95;26.41
41366;BME280;27108;44.776;20.476;2022-07-12T11:32:46;100294.22;;;26.89;27.71
41366;BME280;27108;44.776;20.476;2022-07-12T11:35:20;100293.25;;;26.87;27.65
41366;BME280;27108;44.776;20.476;2022-07-12T11:37:51;100287.47;;;27.00;26.79
41366;BME280;27108;44.776;20.476;2022-07-12T11:40:25;100178.31;;;26.42;26.79
41366;BME280;27108;44.776;20.476;2022-07-12T11:42:55;100288.75;;;27.27;26.73
41366;BME280;27108;44.776;20.476;2022-07-12T11:45:31;100102.16;;;25.94;26.68
41366;BME280;27108;44.776;20.476;2022-07-12T11:48:07;100287.97;;;27.27;28.51
41366;BME280;27108;44.776;20.476;2022-07-12T11:50:36;100284.56;;;27.28;27.06
41366;BME280;27108;44.776;20.476;2022-07-12T11:53:15;100274.13;;;27.16;26.19
41366;BME280;27108;44.776;20.476;2022-07-12T11:55:55;100202.44;;;26.64;27.25
41366;BME280;27108;44.776;20.476;2022-07-12T11:58:27;100148.16;;;26.52;26.94
41366;BME280;27108;44.776;20.476;2022-07-12T12:01:10;100273.63;;;27.33;28.01
41366;BME280;27108;44.776;20.476;2022-07-12T12:03:44;100281.78;;;27.44;27.69
41366;BME280;27108;44.776;20.476;2022-07-12T12:06:19;100280.06;;;27.41;26.48
41366;BME280;27108;44.776;20.476;2022-07-12T12:08:50;100283.84;;;27.36;27.32
41366;BME280;27108;44.776;20.476;2022-07-12T12:11:44;100272.84;;;27.24;27.88
41366;BME280;27108;44.776;20.476;2022-07-12T12:14:13;100265.47;;;27.21;27.24
41366;BME280;27108;44.776;20.476;2022-07-12T12:16:41;100235.03;;;26.85;27.00
41366;BME280;27108;44.776;20.476;2022-07-12T12:19:17;100271.91;;;27.29;27.93
41366;BME280;27108;44.776;20.476;2022-07-12T12:21:54;100269.66;;;27.36;27.88
41366;BME280;27108;44.776;20.476;2022-07-12T12:24:25;100197.81;;;26.89;27.00
41366;BME280;27108;44.776;20.476;2022-07-12T12:27:04;100270.41;;;27.36;27.11
41366;BME280;27108;44.776;20.476;2022-07-12T12:29:43;100266.81;;;27.43;28.14
41366;BME280;27108;44.776;20.476;2022-07-12T12:32:17;100205.09;;;27.13;26.26
41366;BME280;27108;44.776;20.476;2022-07-12T12:35:09;100269.53;;;27.72;28.15
41366;BME280;27108;44.776;20.476;2022-07-12T12:37:39;100279.41;;;27.94;27.40
41366;BME280;27108;44.776;20.476;2022-07-12T12:40:10;100266.91;;;28.20;26.16
41366;BME280;27108;44.776;20.476;2022-07-12T12:42:40;100271.25;;;28.44;25.90
41366;BME280;27108;44.776;20.476;2022-07-12T12:45:20;100262.16;;;28.45;24.96
41366;BME280;27108;44.776;20.476;2022-07-12T12:47:54;100277.31;;;28.40;24.51
41366;BME280;27108;44.776;20.476;2022-07-12T12:50:46;100261.59;;;28.39;23.84
41366;BME280;27108;44.776;20.476;2022-07-12T12:53:22;100262.91;;;28.31;25.39
41366;BME280;27108;44.776;20.476;2022-07-12T12:55:57;100208.56;;;27.65;25.78
41366;BME280;27108;44.776;20.476;2022-07-12T12:58:27;100142.34;;;27.24;26.42
41366;BME280;27108;44.776;20.476;2022-07-12T13:00:59;100257.63;;;28.27;26.14
41366;BME280;27108;44.776;20.476;2022-07-12T13:03:30;100256.09;;;28.49;25.54
41366;BME280;27108;44.776;20.476;2022-07-12T13:06:05;100113.53;;;27.89;25.13
41366;BME280;27108;44.776;20.476;2022-07-12T13:08:43;100248.13;;;29.11;24.16
41366;BME280;27108;44.776;20.476;2022-07-12T13:11:14;100202.69;;;28.88;24.91
41366;BME280;27108;44.776;20.476;2022-07-12T13:13:56;100158.44;;;28.54;25.73
41366;BME280;27108;44.776;20.476;2022-07-12T13:16:33;100254.72;;;29.13;24.77
41366;BME280;27108;44.776;20.476;2022-07-12T13:19:05;100242.03;;;29.07;25.69
41366;BME280;27108;44.776;20.476;2022-07-12T13:21:42;100245.13;;;29.01;25.94
41366;BME280;27108;44.776;20.476;2022-07-12T13:24:16;100164.31;;;28.56;25.17
41366;BME280;27108;44.776;20.476;2022-07-12T13:26:48;100175.25;;;28.75;24.26